sensor_id;sensor_type;location;lat;lon;timestamp;P1;durP1;ratioP1;P2;durP2;ratioP2
57627;SDS011;43451;49.060;10.616;2023-06-14T00:01:32;7.85;;;4.93;;
57627;SDS011;43451;49.060;10.616;2023-06-14T00:04:00;8.27;;;4.93;;
57627;SDS011;43451;49.060;10.616;2023-06-14T00:06:26;6.40;;;4.50;;
57627;SDS011;43451;49.060;10.616;2023-06-14T00:08:53;5.53;;;4.35;;
57627;SDS011;43451;49.060;10.616;2023-06-14T00:11:19;4.90;;;4.40;;
57627;SDS011;43451;49.060;10.616;2023-06-14T00:13:45;5.72;;;4.70;;
57627;SDS011;43451;49.060;10.616;2023-06-14T00:16:11;5.75;;;4.47;;
57627;SDS011;43451;49.060;10.616;2023-06-14T00:18:37;5.70;;;4.80;;
57627;SDS011;43451;49.060;10.616;2023-06-14T00:21:03;5.43;;;4.40;;
57627;SDS011;43451;49.060;10.616;2023-06-14T00:23:29;5.97;;;4.60;;
57627;SDS011;43451;49.060;10.616;2023-06-14T00:25:55;5.75;;;4.32;;
57627;SDS011;43451;49.060;10.616;2023-06-14T00:28:21;7.68;;;4.82;;
57627;SDS011;43451;49.060;10.616;2023-06-14T00:30:47;6.70;;;4.53;;
57627;SDS011;43451;49.060;10.616;2023-06-14T00:33:12;7.20;;;5.38;;
57627;SDS011;43451;49.060;10.616;2023-06-14T00:35:38;7.50;;;4.90;;
57627;SDS011;43451;49.060;10.616;2023-06-14T00:38:04;5.88;;;4.85;;
57627;SDS011;43451;49.060;10.616;2023-06-14T00:40:29;8.55;;;4.68;;
57627;SDS011;43451;49.060;10.616;2023-06-14T00:42:55;5.97;;;5.07;;
57627;SDS011;43451;49.060;10.616;2023-06-14T00:45:20;6.03;;;4.90;;
57627;SDS011;43451;49.060;10.616;2023-06-14T00:47:46;7.00;;;4.88;;
57627;SDS011;43451;49.060;10.616;2023-06-14T00:50:13;6.70;;;5.03;;
57627;SDS011;43451;49.060;10.616;2023-06-14T00:52:39;8.20;;;4.68;;
57627;SDS011;43451;49.060;10.616;2023-06-14T00:55:05;7.10;;;5.00;;
57627;SDS011;43451;49.060;10.616;2023-06-14T00:57:31;5.90;;;4.72;;
57627;SDS011;43451;49.060;10.616;2023-06-14T00:59:57;9.23;;;5.15;;
57627;SDS011;43451;49.060;10.616;2023-06-14T01:02:22;8.82;;;4.80;;
57627;SDS011;43451;49.060;10.616;2023-06-14T01:04:49;5.85;;;4.88;;
57627;SDS011;43451;49.060;10.616;2023-06-14T01:16:03;8.50;;;5.07;;
57627;SDS011;43451;49.060;10.616;2023-06-14T01:18:30;7.53;;;5.07;;
57627;SDS011;43451;49.060;10.616;2023-06-14T01:20:57;7.10;;;5.27;;
57627;SDS011;43451;49.060;10.616;2023-06-14T01:23:23;5.68;;;5.07;;
57627;SDS011;43451;49.060;10.616;2023-06-14T01:25:49;7.25;;;5.10;;
57627;SDS011;43451;49.060;10.616;2023-06-14T01:28:19;6.05;;;5.40;;
57627;SDS011;43451;49.060;10.616;2023-06-14T01:30:49;7.13;;;5.65;;
57627;SDS011;43451;49.060;10.616;2023-06-14T01:33:19;6.40;;;4.85;;
57627;SDS011;43451;49.060;10.616;2023-06-14T01:35:47;7.88;;;5.38;;
57627;SDS011;43451;49.060;10.616;2023-06-14T01:38:14;6.72;;;4.90;;
57627;SDS011;43451;49.060;10.616;2023-06-14T01:40:42;6.43;;;4.95;;
57627;SDS011;43451;49.060;10.616;2023-06-14T01:43:08;8.55;;;5.57;;
57627;SDS011;43451;49.060;10.616;2023-06-14T01:45:35;7.00;;;5.47;;
57627;SDS011;43451;49.060;10.616;2023-06-14T01:48:02;8.73;;;5.55;;
57627;SDS011;43451;49.060;10.616;2023-06-14T01:50:31;7.53;;;5.43;;
57627;SDS011;43451;49.060;10.616;2023-06-14T01:52:57;7.18;;;5.68;;
57627;SDS011;43451;49.060;10.616;2023-06-14T01:55:23;7.30;;;5.68;;
57627;SDS011;43451;49.060;10.616;2023-06-14T01:57:52;6.68;;;5.70;;
57627;SDS011;43451;49.060;10.616;2023-06-14T02:00:18;7.55;;;5.43;;
57627;SDS011;43451;49.060;10.616;2023-06-14T02:02:44;5.90;;;5.15;;
57627;SDS011;43451;49.060;10.616;2023-06-14T02:05:11;7.55;;;5.55;;
57627;SDS011;43451;49.060;10.616;2023-06-14T02:07:36;8.23;;;5.60;;
57627;SDS011;43451;49.060;10.616;2023-06-14T02:10:05;7.30;;;5.50;;
57627;SDS011;43451;49.060;10.616;2023-06-14T02:12:31;6.72;;;5.68;;
57627;SDS011;43451;49.060;10.616;2023-06-14T02:14:56;8.38;;;5.72;;
57627;SDS011;43451;49.060;10.616;2023-06-14T02:17:23;6.90;;;5.75;;
57627;SDS011;43451;49.060;10.616;2023-06-14T02:19:50;7.28;;;5.40;;
57627;SDS011;43451;49.060;10.616;2023-06-14T02:22:16;7.57;;;5.35;;
57627;SDS011;43451;49.060;10.616;2023-06-14T02:24:42;8.32;;;5.07;;
57627;SDS011;43451;49.060;10.616;2023-06-14T02:27:08;9.05;;;5.40;;
57627;SDS011;43451;49.060;10.616;2023-06-14T02:29:36;8.27;;;5.57;;
57627;SDS011;43451;49.060;10.616;2023-06-14T02:32:02;7.45;;;5.57;;
57627;SDS011;43451;49.060;10.616;2023-06-14T02:34:28;6.15;;;5.55;;
57627;SDS011;43451;49.060;10.616;2023-06-14T02:36:53;7.00;;;5.72;;
57627;SDS011;43451;49.060;10.616;2023-06-14T02:39:20;6.55;;;5.30;;
57627;SDS011;43451;49.060;10.616;2023-06-14T02:41:49;6.50;;;5.32;;
57627;SDS011;43451;49.060;10.616;2023-06-14T02:44:18;6.45;;;5.28;;
57627;SDS011;43451;49.060;10.616;2023-06-14T02:46:44;7.78;;;6.10;;
57627;SDS011;43451;49.060;10.616;2023-06-14T02:49:13;8.52;;;6.13;;
57627;SDS011;43451;49.060;10.616;2023-06-14T02:51:39;8.82;;;6.05;;
57627;SDS011;43451;49.060;10.616;2023-06-14T02:54:05;8.40;;;5.97;;
57627;SDS011;43451;49.060;10.616;2023-06-14T02:56:30;10.75;;;6.38;;
57627;SDS011;43451;49.060;10.616;2023-06-14T02:58:56;8.65;;;6.38;;
57627;SDS011;43451;49.060;10.616;2023-06-14T03:01:22;7.93;;;5.72;;
57627;SDS011;43451;49.060;10.616;2023-06-14T03:03:48;12.27;;;6.03;;
57627;SDS011;43451;49.060;10.616;2023-06-14T03:06:13;9.63;;;6.13;;
57627;SDS011;43451;49.060;10.616;2023-06-14T03:08:41;7.75;;;6.13;;
57627;SDS011;43451;49.060;10.616;2023-06-14T03:11:07;7.78;;;5.95;;
57627;SDS011;43451;49.060;10.616;2023-06-14T03:13:33;6.95;;;5.57;;
57627;SDS011;43451;49.060;10.616;2023-06-14T03:15:59;7.78;;;6.32;;
57627;SDS011;43451;49.060;10.616;2023-06-14T03:18:27;10.30;;;6.05;;
57627;SDS011;43451;49.060;10.616;2023-06-14T03:23:22;7.10;;;5.65;;
57627;SDS011;43451;49.060;10.616;2023-06-14T03:25:48;9.30;;;5.82;;
57627;SDS011;43451;49.060;10.616;2023-06-14T03:28:14;9.20;;;5.78;;
57627;SDS011;43451;49.060;10.616;2023-06-14T03:30:39;8.70;;;6.15;;
57627;SDS011;43451;49.060;10.616;2023-06-14T03:33:05;6.80;;;5.72;;
57627;SDS011;43451;49.060;10.616;2023-06-14T03:35:31;8.38;;;5.30;;
57627;SDS011;43451;49.060;10.616;2023-06-14T03:37:56;8.68;;;6.00;;
57627;SDS011;43451;49.060;10.616;2023-06-14T03:40:22;9.27;;;5.97;;
57627;SDS011;43451;49.060;10.616;2023-06-14T03:42:51;10.00;;;5.93;;
57627;SDS011;43451;49.060;10.616;2023-06-14T03:45:18;7.53;;;6.45;;
57627;SDS011;43451;49.060;10.616;2023-06-14T03:47:43;7.40;;;6.00;;
57627;SDS011;43451;49.060;10.616;2023-06-14T03:50:09;7.50;;;6.18;;
57627;SDS011;43451;49.060;10.616;2023-06-14T03:52:35;8.90;;;6.53;;
57627;SDS011;43451;49.060;10.616;2023-06-14T03:55:02;8.68;;;6.55;;
57627;SDS011;43451;49.060;10.616;2023-06-14T03:57:29;7.45;;;6.10;;
57627;SDS011;43451;49.060;10.616;2023-06-14T03:59:55;8.63;;;5.88;;
57627;SDS011;43451;49.060;10.616;2023-06-14T04:02:20;8.15;;;6.25;;
57627;SDS011;43451;49.060;10.616;2023-06-14T04:04:46;6.88;;;6.15;;
57627;SDS011;43451;49.060;10.616;2023-06-14T04:07:13;9.55;;;6.57;;
57627;SDS011;43451;49.060;10.616;2023-06-14T04:09:42;8.13;;;6.03;;
57627;SDS011;43451;49.060;10.616;2023-06-14T04:12:08;10.13;;;6.88;;
57627;SDS011;43451;49.060;10.616;2023-06-14T04:14:37;8.90;;;6.22;;
57627;SDS011;43451;49.060;10.616;2023-06-14T04:17:03;8.00;;;5.95;;
57627;SDS011;43451;49.060;10.616;2023-06-14T04:19:29;7.85;;;6.50;;
57627;SDS011;43451;49.060;10.616;2023-06-14T04:21:55;9.63;;;6.35;;
57627;SDS011;43451;49.060;10.616;2023-06-14T04:24:21;7.13;;;5.93;;
57627;SDS011;43451;49.060;10.616;2023-06-14T04:26:48;7.57;;;6.00;;
57627;SDS011;43451;49.060;10.616;2023-06-14T04:29:14;8.98;;;5.93;;
57627;SDS011;43451;49.060;10.616;2023-06-14T04:31:41;8.57;;;6.60;;
57627;SDS011;43451;49.060;10.616;2023-06-14T04:34:07;9.05;;;6.78;;
57627;SDS011;43451;49.060;10.616;2023-06-14T04:36:33;10.23;;;6.60;;
57627;SDS011;43451;49.060;10.616;2023-06-14T04:39:04;9.77;;;6.43;;
57627;SDS011;43451;49.060;10.616;2023-06-14T04:41:30;8.43;;;6.47;;
57627;SDS011;43451;49.060;10.616;2023-06-14T04:44:00;8.90;;;6.38;;
57627;SDS011;43451;49.060;10.616;2023-06-14T04:46:27;6.75;;;6.05;;
57627;SDS011;43451;49.060;10.616;2023-06-14T04:48:53;9.17;;;6.70;;
57627;SDS011;43451;49.060;10.616;2023-06-14T04:51:19;10.00;;;6.60;;
57627;SDS011;43451;49.060;10.616;2023-06-14T04:53:47;9.05;;;6.38;;
57627;SDS011;43451;49.060;10.616;2023-06-14T04:56:14;10.05;;;6.15;;
57627;SDS011;43451;49.060;10.616;2023-06-14T04:58:40;8.23;;;6.22;;
57627;SDS011;43451;49.060;10.616;2023-06-14T05:01:06;7.70;;;6.07;;
57627;SDS011;43451;49.060;10.616;2023-06-14T05:03:34;6.97;;;5.93;;
57627;SDS011;43451;49.060;10.616;2023-06-14T05:05:59;9.00;;;6.15;;
57627;SDS011;43451;49.060;10.616;2023-06-14T05:08:25;7.88;;;6.05;;
57627;SDS011;43451;49.060;10.616;2023-06-14T05:10:51;9.15;;;6.28;;
57627;SDS011;43451;49.060;10.616;2023-06-14T05:13:17;8.40;;;6.22;;
57627;SDS011;43451;49.060;10.616;2023-06-14T05:15:43;10.27;;;5.97;;
57627;SDS011;43451;49.060;10.616;2023-06-14T05:18:10;8.80;;;6.30;;
57627;SDS011;43451;49.060;10.616;2023-06-14T05:20:36;8.07;;;6.15;;
57627;SDS011;43451;49.060;10.616;2023-06-14T05:23:02;7.95;;;5.72;;
57627;SDS011;43451;49.060;10.616;2023-06-14T05:25:28;9.15;;;6.15;;
57627;SDS011;43451;49.060;10.616;2023-06-14T05:27:53;6.57;;;5.88;;
57627;SDS011;43451;49.060;10.616;2023-06-14T05:30:19;8.70;;;5.90;;
57627;SDS011;43451;49.060;10.616;2023-06-14T05:32:45;9.18;;;5.47;;
57627;SDS011;43451;49.060;10.616;2023-06-14T05:35:11;6.15;;;5.45;;
57627;SDS011;43451;49.060;10.616;2023-06-14T05:37:36;8.05;;;5.55;;
57627;SDS011;43451;49.060;10.616;2023-06-14T05:40:02;12.88;;;8.07;;
57627;SDS011;43451;49.060;10.616;2023-06-14T05:42:32;29.17;;;15.60;;
57627;SDS011;43451;49.060;10.616;2023-06-14T05:44:58;8.85;;;5.95;;
57627;SDS011;43451;49.060;10.616;2023-06-14T05:47:23;8.25;;;5.90;;
57627;SDS011;43451;49.060;10.616;2023-06-14T05:49:49;7.40;;;5.50;;
57627;SDS011;43451;49.060;10.616;2023-06-14T05:52:14;5.97;;;5.28;;
57627;SDS011;43451;49.060;10.616;2023-06-14T05:54:40;8.57;;;5.85;;
57627;SDS011;43451;49.060;10.616;2023-06-14T05:57:06;10.50;;;6.00;;
57627;SDS011;43451;49.060;10.616;2023-06-14T05:59:32;9.45;;;5.47;;
57627;SDS011;43451;49.060;10.616;2023-06-14T06:01:57;7.80;;;5.00;;
57627;SDS011;43451;49.060;10.616;2023-06-14T06:04:23;7.75;;;4.80;;
57627;SDS011;43451;49.060;10.616;2023-06-14T06:06:48;8.05;;;4.90;;
57627;SDS011;43451;49.060;10.616;2023-06-14T06:09:14;5.70;;;5.13;;
57627;SDS011;43451;49.060;10.616;2023-06-14T06:11:40;6.03;;;5.25;;
57627;SDS011;43451;49.060;10.616;2023-06-14T06:14:06;4.97;;;4.47;;
57627;SDS011;43451;49.060;10.616;2023-06-14T06:16:31;6.97;;;4.93;;
57627;SDS011;43451;49.060;10.616;2023-06-14T06:18:57;6.65;;;4.97;;
57627;SDS011;43451;49.060;10.616;2023-06-14T06:21:23;6.28;;;4.47;;
57627;SDS011;43451;49.060;10.616;2023-06-14T06:23:48;9.13;;;4.65;;
57627;SDS011;43451;49.060;10.616;2023-06-14T06:26:14;6.97;;;4.40;;
57627;SDS011;43451;49.060;10.616;2023-06-14T06:28:40;6.25;;;4.28;;
57627;SDS011;43451;49.060;10.616;2023-06-14T06:31:06;7.47;;;4.30;;
57627;SDS011;43451;49.060;10.616;2023-06-14T06:33:31;5.03;;;4.50;;
57627;SDS011;43451;49.060;10.616;2023-06-14T06:35:57;6.57;;;4.50;;
57627;SDS011;43451;49.060;10.616;2023-06-14T06:38:22;6.50;;;4.60;;
57627;SDS011;43451;49.060;10.616;2023-06-14T06:40:48;5.72;;;4.72;;
57627;SDS011;43451;49.060;10.616;2023-06-14T06:43:13;7.28;;;4.78;;
57627;SDS011;43451;49.060;10.616;2023-06-14T06:45:39;13.70;;;8.85;;
57627;SDS011;43451;49.060;10.616;2023-06-14T06:48:05;7.78;;;5.03;;
57627;SDS011;43451;49.060;10.616;2023-06-14T06:50:31;8.35;;;5.72;;
57627;SDS011;43451;49.060;10.616;2023-06-14T06:52:58;8.13;;;5.20;;
57627;SDS011;43451;49.060;10.616;2023-06-14T06:55:23;6.22;;;4.10;;
57627;SDS011;43451;49.060;10.616;2023-06-14T06:57:49;7.93;;;4.47;;
57627;SDS011;43451;49.060;10.616;2023-06-14T07:00:15;7.93;;;4.80;;
57627;SDS011;43451;49.060;10.616;2023-06-14T07:02:41;6.72;;;4.25;;
57627;SDS011;43451;49.060;10.616;2023-06-14T07:05:07;7.20;;;4.25;;
57627;SDS011;43451;49.060;10.616;2023-06-14T07:07:33;6.68;;;4.50;;
57627;SDS011;43451;49.060;10.616;2023-06-14T07:09:59;5.82;;;4.43;;
57627;SDS011;43451;49.060;10.616;2023-06-14T07:12:25;8.75;;;4.30;;
57627;SDS011;43451;49.060;10.616;2023-06-14T07:14:51;21.15;;;4.97;;
57627;SDS011;43451;49.060;10.616;2023-06-14T07:17:17;5.07;;;4.57;;
57627;SDS011;43451;49.060;10.616;2023-06-14T07:19:42;5.00;;;4.30;;
57627;SDS011;43451;49.060;10.616;2023-06-14T07:22:08;8.35;;;4.05;;
57627;SDS011;43451;49.060;10.616;2023-06-14T07:24:33;6.10;;;4.57;;
57627;SDS011;43451;49.060;10.616;2023-06-14T07:29:27;7.38;;;4.00;;
57627;SDS011;43451;49.060;10.616;2023-06-14T07:31:52;5.78;;;4.35;;
57627;SDS011;43451;49.060;10.616;2023-06-14T07:34:18;7.07;;;4.20;;
57627;SDS011;43451;49.060;10.616;2023-06-14T07:36:43;7.32;;;3.90;;
57627;SDS011;43451;49.060;10.616;2023-06-14T07:39:10;14.82;;;4.88;;
57627;SDS011;43451;49.060;10.616;2023-06-14T07:41:35;7.90;;;4.28;;
57627;SDS011;43451;49.060;10.616;2023-06-14T07:44:01;6.30;;;4.18;;
57627;SDS011;43451;49.060;10.616;2023-06-14T07:46:26;5.05;;;4.00;;
57627;SDS011;43451;49.060;10.616;2023-06-14T07:48:52;7.90;;;4.25;;
57627;SDS011;43451;49.060;10.616;2023-06-14T07:51:17;8.77;;;4.50;;
57627;SDS011;43451;49.060;10.616;2023-06-14T07:53:43;7.25;;;4.20;;
57627;SDS011;43451;49.060;10.616;2023-06-14T07:56:08;5.35;;;4.00;;
57627;SDS011;43451;49.060;10.616;2023-06-14T07:58:34;5.97;;;4.00;;
57627;SDS011;43451;49.060;10.616;2023-06-14T08:00:59;8.50;;;4.55;;
57627;SDS011;43451;49.060;10.616;2023-06-14T08:03:26;5.18;;;4.10;;
57627;SDS011;43451;49.060;10.616;2023-06-14T08:05:52;6.38;;;3.88;;
57627;SDS011;43451;49.060;10.616;2023-06-14T08:08:18;6.20;;;4.53;;
57627;SDS011;43451;49.060;10.616;2023-06-14T08:10:43;6.28;;;3.85;;
57627;SDS011;43451;49.060;10.616;2023-06-14T08:13:09;5.82;;;3.75;;
57627;SDS011;43451;49.060;10.616;2023-06-14T08:15:35;7.15;;;4.28;;
57627;SDS011;43451;49.060;10.616;2023-06-14T08:18:00;5.90;;;3.95;;
57627;SDS011;43451;49.060;10.616;2023-06-14T08:20:26;7.22;;;4.47;;
57627;SDS011;43451;49.060;10.616;2023-06-14T08:22:52;6.70;;;4.38;;
57627;SDS011;43451;49.060;10.616;2023-06-14T08:25:21;9.38;;;6.82;;
57627;SDS011;43451;49.060;10.616;2023-06-14T08:27:47;8.05;;;4.50;;
57627;SDS011;43451;49.060;10.616;2023-06-14T08:30:13;8.82;;;4.50;;
57627;SDS011;43451;49.060;10.616;2023-06-14T08:32:39;5.38;;;4.10;;
57627;SDS011;43451;49.060;10.616;2023-06-14T08:35:04;10.52;;;6.20;;
57627;SDS011;43451;49.060;10.616;2023-06-14T08:39:58;7.05;;;4.95;;
57627;SDS011;43451;49.060;10.616;2023-06-14T08:42:24;9.82;;;7.22;;
57627;SDS011;43451;49.060;10.616;2023-06-14T08:44:50;5.65;;;3.70;;
57627;SDS011;43451;49.060;10.616;2023-06-14T08:47:15;6.85;;;4.05;;
57627;SDS011;43451;49.060;10.616;2023-06-14T08:49:45;5.85;;;4.00;;
57627;SDS011;43451;49.060;10.616;2023-06-14T08:52:13;4.68;;;3.67;;
57627;SDS011;43451;49.060;10.616;2023-06-14T08:57:09;4.47;;;3.38;;
57627;SDS011;43451;49.060;10.616;2023-06-14T08:59:41;6.78;;;4.35;;
57627;SDS011;43451;49.060;10.616;2023-06-14T09:02:11;7.00;;;4.20;;
57627;SDS011;43451;49.060;10.616;2023-06-14T09:07:05;6.07;;;4.00;;
57627;SDS011;43451;49.060;10.616;2023-06-14T09:09:31;5.73;;;3.40;;
57627;SDS011;43451;49.060;10.616;2023-06-14T09:11:57;5.57;;;3.40;;
57627;SDS011;43451;49.060;10.616;2023-06-14T09:14:26;3.22;;;2.85;;
57627;SDS011;43451;49.060;10.616;2023-06-14T09:16:54;4.03;;;3.08;;
57627;SDS011;43451;49.060;10.616;2023-06-14T09:19:23;4.80;;;3.47;;
57627;SDS011;43451;49.060;10.616;2023-06-14T09:21:49;4.57;;;3.35;;
57627;SDS011;43451;49.060;10.616;2023-06-14T09:24:17;4.35;;;3.05;;
57627;SDS011;43451;49.060;10.616;2023-06-14T09:26:46;6.25;;;3.65;;
57627;SDS011;43451;49.060;10.616;2023-06-14T09:29:12;7.47;;;3.80;;
57627;SDS011;43451;49.060;10.616;2023-06-14T09:31:38;5.28;;;3.10;;
57627;SDS011;43451;49.060;10.616;2023-06-14T09:34:04;4.15;;;3.00;;
57627;SDS011;43451;49.060;10.616;2023-06-14T09:36:31;6.38;;;3.15;;
57627;SDS011;43451;49.060;10.616;2023-06-14T09:38:57;4.78;;;3.30;;
57627;SDS011;43451;49.060;10.616;2023-06-14T09:44:00;9.68;;;3.60;;
57627;SDS011;43451;49.060;10.616;2023-06-14T09:48:54;3.72;;;2.85;;
57627;SDS011;43451;49.060;10.616;2023-06-14T09:51:24;7.22;;;3.35;;
57627;SDS011;43451;49.060;10.616;2023-06-14T09:53:51;8.93;;;3.53;;
57627;SDS011;43451;49.060;10.616;2023-06-14T09:56:28;7.70;;;3.72;;
57627;SDS011;43451;49.060;10.616;2023-06-14T09:58:55;4.60;;;3.15;;
57627;SDS011;43451;49.060;10.616;2023-06-14T10:01:21;5.28;;;3.33;;
57627;SDS011;43451;49.060;10.616;2023-06-14T10:03:50;3.47;;;3.10;;
57627;SDS011;43451;49.060;10.616;2023-06-14T10:06:29;5.80;;;3.40;;
57627;SDS011;43451;49.060;10.616;2023-06-14T10:08:59;5.85;;;3.70;;
57627;SDS011;43451;49.060;10.616;2023-06-14T10:11:26;4.38;;;3.10;;
57627;SDS011;43451;49.060;10.616;2023-06-14T10:13:52;4.50;;;3.23;;
57627;SDS011;43451;49.060;10.616;2023-06-14T10:16:27;5.32;;;3.17;;
57627;SDS011;43451;49.060;10.616;2023-06-14T10:21:57;5.55;;;3.60;;
57627;SDS011;43451;49.060;10.616;2023-06-14T10:24:32;4.03;;;3.13;;
57627;SDS011;43451;49.060;10.616;2023-06-14T10:27:01;3.80;;;3.40;;
57627;SDS011;43451;49.060;10.616;2023-06-14T10:29:29;5.35;;;3.30;;
57627;SDS011;43451;49.060;10.616;2023-06-14T10:31:57;7.30;;;3.30;;
57627;SDS011;43451;49.060;10.616;2023-06-14T10:34:24;5.80;;;3.08;;
57627;SDS011;43451;49.060;10.616;2023-06-14T10:37:00;7.78;;;3.08;;
57627;SDS011;43451;49.060;10.616;2023-06-14T10:39:29;5.13;;;3.00;;
57627;SDS011;43451;49.060;10.616;2023-06-14T10:46:53;3.80;;;3.10;;
57627;SDS011;43451;49.060;10.616;2023-06-14T10:49:20;4.30;;;3.00;;
57627;SDS011;43451;49.060;10.616;2023-06-14T10:52:07;4.07;;;3.10;;
57627;SDS011;43451;49.060;10.616;2023-06-14T10:54:37;3.80;;;3.10;;
57627;SDS011;43451;49.060;10.616;2023-06-14T10:57:03;3.80;;;2.80;;
57627;SDS011;43451;49.060;10.616;2023-06-14T10:59:32;4.38;;;3.00;;
57627;SDS011;43451;49.060;10.616;2023-06-14T11:02:33;4.78;;;3.03;;
57627;SDS011;43451;49.060;10.616;2023-06-14T11:05:10;6.13;;;3.25;;
57627;SDS011;43451;49.060;10.616;2023-06-14T11:07:55;7.13;;;3.10;;
57627;SDS011;43451;49.060;10.616;2023-06-14T11:10:37;4.45;;;3.30;;
57627;SDS011;43451;49.060;10.616;2023-06-14T11:13:03;5.47;;;3.10;;
57627;SDS011;43451;49.060;10.616;2023-06-14T11:15:31;4.20;;;2.97;;
57627;SDS011;43451;49.060;10.616;2023-06-14T11:17:57;7.22;;;2.92;;
57627;SDS011;43451;49.060;10.616;2023-06-14T11:20:25;8.32;;;3.10;;
57627;SDS011;43451;49.060;10.616;2023-06-14T11:22:52;4.63;;;2.90;;
57627;SDS011;43451;49.060;10.616;2023-06-14T11:25:18;6.20;;;2.60;;
57627;SDS011;43451;49.060;10.616;2023-06-14T11:27:44;3.78;;;2.95;;
57627;SDS011;43451;49.060;10.616;2023-06-14T11:30:11;9.47;;;3.50;;
57627;SDS011;43451;49.060;10.616;2023-06-14T11:32:38;3.70;;;2.90;;
57627;SDS011;43451;49.060;10.616;2023-06-14T11:35:04;4.97;;;2.70;;
57627;SDS011;43451;49.060;10.616;2023-06-14T11:37:31;4.73;;;3.00;;
57627;SDS011;43451;49.060;10.616;2023-06-14T11:40:00;5.40;;;3.00;;
57627;SDS011;43451;49.060;10.616;2023-06-14T11:42:26;5.82;;;2.75;;
57627;SDS011;43451;49.060;10.616;2023-06-14T11:44:53;4.68;;;3.00;;
57627;SDS011;43451;49.060;10.616;2023-06-14T11:47:20;3.67;;;3.08;;
57627;SDS011;43451;49.060;10.616;2023-06-14T11:49:46;4.10;;;2.90;;
57627;SDS011;43451;49.060;10.616;2023-06-14T11:52:11;6.22;;;3.30;;
57627;SDS011;43451;49.060;10.616;2023-06-14T11:54:37;4.97;;;2.88;;
57627;SDS011;43451;49.060;10.616;2023-06-14T11:57:05;4.47;;;3.20;;
57627;SDS011;43451;49.060;10.616;2023-06-14T11:59:32;5.15;;;3.10;;
57627;SDS011;43451;49.060;10.616;2023-06-14T12:02:02;6.95;;;3.13;;
57627;SDS011;43451;49.060;10.616;2023-06-14T12:04:29;3.97;;;3.00;;
57627;SDS011;43451;49.060;10.616;2023-06-14T12:06:55;5.03;;;3.00;;
57627;SDS011;43451;49.060;10.616;2023-06-14T12:11:50;5.28;;;2.72;;
57627;SDS011;43451;49.060;10.616;2023-06-14T12:14:28;9.30;;;2.75;;
57627;SDS011;43451;49.060;10.616;2023-06-14T12:17:03;4.05;;;2.95;;
57627;SDS011;43451;49.060;10.616;2023-06-14T12:19:30;8.65;;;2.88;;
57627;SDS011;43451;49.060;10.616;2023-06-14T12:21:58;4.10;;;3.00;;
57627;SDS011;43451;49.060;10.616;2023-06-14T12:24:27;4.18;;;2.90;;
57627;SDS011;43451;49.060;10.616;2023-06-14T12:26:54;6.97;;;2.85;;
57627;SDS011;43451;49.060;10.616;2023-06-14T12:29:20;5.40;;;2.70;;
57627;SDS011;43451;49.060;10.616;2023-06-14T12:31:45;5.47;;;3.33;;
57627;SDS011;43451;49.060;10.616;2023-06-14T12:34:11;3.30;;;2.90;;
57627;SDS011;43451;49.060;10.616;2023-06-14T12:36:36;4.88;;;3.25;;
57627;SDS011;43451;49.060;10.616;2023-06-14T12:39:07;6.10;;;3.10;;
57627;SDS011;43451;49.060;10.616;2023-06-14T12:41:33;5.80;;;3.13;;
57627;SDS011;43451;49.060;10.616;2023-06-14T12:43:59;3.75;;;3.20;;
57627;SDS011;43451;49.060;10.616;2023-06-14T12:46:29;7.35;;;3.50;;
57627;SDS011;43451;49.060;10.616;2023-06-14T12:48:56;4.32;;;3.33;;
57627;SDS011;43451;49.060;10.616;2023-06-14T12:51:22;5.03;;;3.20;;
57627;SDS011;43451;49.060;10.616;2023-06-14T12:53:47;4.80;;;3.50;;
57627;SDS011;43451;49.060;10.616;2023-06-14T12:56:14;5.53;;;3.30;;
57627;SDS011;43451;49.060;10.616;2023-06-14T12:58:41;4.57;;;3.13;;
57627;SDS011;43451;49.060;10.616;2023-06-14T13:01:06;5.53;;;3.30;;
57627;SDS011;43451;49.060;10.616;2023-06-14T13:03:32;4.88;;;3.33;;
57627;SDS011;43451;49.060;10.616;2023-06-14T13:06:01;4.88;;;3.28;;
57627;SDS011;43451;49.060;10.616;2023-06-14T13:08:28;5.78;;;3.42;;
57627;SDS011;43451;49.060;10.616;2023-06-14T13:10:53;4.82;;;3.42;;
57627;SDS011;43451;49.060;10.616;2023-06-14T13:13:19;6.65;;;3.15;;
57627;SDS011;43451;49.060;10.616;2023-06-14T13:15:46;6.80;;;3.30;;
57627;SDS011;43451;49.060;10.616;2023-06-14T13:18:12;13.45;;;3.72;;
57627;SDS011;43451;49.060;10.616;2023-06-14T13:20:40;4.93;;;3.03;;
57627;SDS011;43451;49.060;10.616;2023-06-14T13:23:06;4.30;;;2.97;;
57627;SDS011;43451;49.060;10.616;2023-06-14T13:25:33;6.45;;;3.40;;
57627;SDS011;43451;49.060;10.616;2023-06-14T13:27:59;4.50;;;3.45;;
57627;SDS011;43451;49.060;10.616;2023-06-14T13:30:25;4.88;;;3.30;;
57627;SDS011;43451;49.060;10.616;2023-06-14T13:32:50;5.90;;;3.10;;
57627;SDS011;43451;49.060;10.616;2023-06-14T13:35:17;7.78;;;3.53;;
57627;SDS011;43451;49.060;10.616;2023-06-14T13:37:44;10.32;;;3.75;;
57627;SDS011;43451;49.060;10.616;2023-06-14T13:40:10;7.50;;;3.35;;
57627;SDS011;43451;49.060;10.616;2023-06-14T13:42:36;7.25;;;3.30;;
57627;SDS011;43451;49.060;10.616;2023-06-14T13:45:02;16.02;;;3.80;;
57627;SDS011;43451;49.060;10.616;2023-06-14T13:47:29;5.90;;;3.35;;
57627;SDS011;43451;49.060;10.616;2023-06-14T13:49:56;5.32;;;3.50;;
57627;SDS011;43451;49.060;10.616;2023-06-14T13:52:21;6.75;;;3.55;;
57627;SDS011;43451;49.060;10.616;2023-06-14T13:54:47;4.85;;;3.40;;
57627;SDS011;43451;49.060;10.616;2023-06-14T13:57:13;4.38;;;3.30;;
57627;SDS011;43451;49.060;10.616;2023-06-14T13:59:39;7.47;;;3.35;;
57627;SDS011;43451;49.060;10.616;2023-06-14T14:02:05;5.22;;;3.33;;
57627;SDS011;43451;49.060;10.616;2023-06-14T14:04:32;6.43;;;3.33;;
57627;SDS011;43451;49.060;10.616;2023-06-14T14:06:58;5.40;;;3.58;;
57627;SDS011;43451;49.060;10.616;2023-06-14T14:09:24;6.38;;;3.60;;
57627;SDS011;43451;49.060;10.616;2023-06-14T14:11:49;5.97;;;3.38;;
57627;SDS011;43451;49.060;10.616;2023-06-14T14:14:15;6.55;;;3.55;;
57627;SDS011;43451;49.060;10.616;2023-06-14T14:16:40;8.55;;;3.63;;
57627;SDS011;43451;49.060;10.616;2023-06-14T14:19:06;38.33;;;4.88;;
57627;SDS011;43451;49.060;10.616;2023-06-14T14:21:32;3.67;;;3.30;;
57627;SDS011;43451;49.060;10.616;2023-06-14T14:23:58;5.55;;;3.60;;
57627;SDS011;43451;49.060;10.616;2023-06-14T14:26:24;3.80;;;3.40;;
57627;SDS011;43451;49.060;10.616;2023-06-14T14:28:50;7.03;;;3.63;;
57627;SDS011;43451;49.060;10.616;2023-06-14T14:31:16;3.93;;;3.10;;
57627;SDS011;43451;49.060;10.616;2023-06-14T14:33:42;6.47;;;3.80;;
57627;SDS011;43451;49.060;10.616;2023-06-14T14:36:07;5.43;;;3.50;;
57627;SDS011;43451;49.060;10.616;2023-06-14T14:38:33;3.42;;;3.13;;
57627;SDS011;43451;49.060;10.616;2023-06-14T14:40:59;5.68;;;3.25;;
57627;SDS011;43451;49.060;10.616;2023-06-14T14:43:24;9.15;;;3.45;;
57627;SDS011;43451;49.060;10.616;2023-06-14T14:45:50;5.65;;;3.75;;
57627;SDS011;43451;49.060;10.616;2023-06-14T14:48:15;7.05;;;3.25;;
57627;SDS011;43451;49.060;10.616;2023-06-14T14:50:41;7.45;;;3.50;;
57627;SDS011;43451;49.060;10.616;2023-06-14T14:53:07;9.32;;;3.63;;
57627;SDS011;43451;49.060;10.616;2023-06-14T14:55:32;17.38;;;3.40;;
57627;SDS011;43451;49.060;10.616;2023-06-14T14:58:01;5.30;;;3.50;;
57627;SDS011;43451;49.060;10.616;2023-06-14T15:00:27;5.47;;;3.33;;
57627;SDS011;43451;49.060;10.616;2023-06-14T15:02:53;5.45;;;3.15;;
57627;SDS011;43451;49.060;10.616;2023-06-14T15:05:18;5.68;;;3.40;;
57627;SDS011;43451;49.060;10.616;2023-06-14T15:07:44;6.18;;;3.60;;